Decoded Metar for KCRS (CORSICANA in TX, USA) (IATA:CRS) | Meteo·Mobile Aviation Weather
aviador You're here:

KCRS Decoded Metar

CORSICANA in TX, USA
Report Time2019-02-20 18:53:00
UTC Time2019-02-20 19:11:15
Flight Rules vfr VFR
WindVRB at 03 kt
Visibility9999 m
Phenomena:N/A
Clouds:N/A
Expected CloudBase > 2,400 ft AGL from Temp-Dew spread
CeilingNone
Temp09°C (ISA -5)
Dew Point03°C (66% RH)
AAT6.4°C
QNH1016 hPa
Density Alt-174 ft
Elevation436 ft
Report Wrong Elevation
Raw Report
KCRS 201853Z AUTO VRB03KT 10SM CLR 09/03 A3001 RMK AO2 SLP162
T00890028=

Extra information for KCRS:More info

Metar Taf Metar & Taf Last 4 Metars F.Rules Stats Wind Profile Meteogram Temp Stats Airport Information Weather charts Add Link Nearby VenuesMetar ALERT Operation Metar Decoded Social comments

AIRNAV info for KCRS